KTVI/TVI METAR and TAF weather

Enter ICAO airport designator
Station Type Date Time Source
KTVI METAR 2019/12/13 03:15 UTC NOAA

KTVI 130315Z AUTO 08006KT 10SM OVC014 10/08 A3024 RMK AO2 LTG DSNT N AND W


Station Type Date Time Source
KTVI Decoded METAR 2019/12/13 03:15 UTC NOAA

Thomasville, GA, United States (KTVI) 30-54-06N 083-52-53W
Dec 12, 2019 - 10:15 PM EST / 2019.12.13 0315 UTC
Wind: from the E (080 degrees) at 7 MPH (6 KT):0
Visibility: 10 mile(s):0
Sky conditions: overcast
Weather: Lightning observed
Temperature: 50 F (10 C)
Dew Point: 46 F (8 C)
Relative Humidity: 87%
Pressure (altimeter): 30.24 in. Hg (1024 hPa)
ob: KTVI 130315Z AUTO 08006KT 10SM OVC014 10/08 A3024 RMK AO2 LTG DSNT N AND W
cycle: 3

Station Type Date Time Source
KTVI TAF UTC NOAA

Error!

Example: see airport list